createdAt,value
2017-08-21T00:00:15.927Z,84.34
2017-08-21T00:01:22.116Z,83.97
2017-08-21T00:02:27.947Z,83.79
2017-08-21T00:03:34.036Z,84.36
2017-08-21T00:04:39.923Z,84.27
2017-08-21T00:05:45.953Z,84.49
2017-08-21T00:06:52.014Z,84.70
2017-08-21T00:07:58.110Z,84.81
2017-08-21T00:09:03.415Z,85.27
2017-08-21T00:10:09.529Z,84.64
2017-08-21T00:11:15.383Z,84.39
2017-08-21T00:12:21.462Z,84.47
2017-08-21T00:13:28.216Z,84.54
2017-08-21T00:14:34.251Z,84.26
2017-08-21T00:15:40.342Z,84.33
2017-08-21T00:16:46.394Z,84.61
2017-08-21T00:17:52.417Z,84.30
2017-08-21T00:18:58.430Z,84.77
2017-08-21T00:20:04.451Z,85.01
2017-08-21T00:21:10.347Z,84.76
2017-08-21T00:22:16.405Z,84.88
2017-08-21T00:23:22.449Z,84.94
2017-08-21T00:24:28.490Z,85.79
2017-08-21T00:25:34.556Z,85.51
2017-08-21T00:26:40.618Z,85.68
2017-08-21T00:27:46.661Z,85.69
2017-08-21T00:28:53.580Z,85.67
2017-08-21T00:29:59.642Z,85.79
2017-08-21T00:31:05.335Z,85.59
2017-08-21T00:32:11.224Z,86.18
2017-08-21T00:33:17.312Z,86.15
2017-08-21T00:34:23.399Z,86.67
2017-08-21T00:35:29.477Z,86.60
2017-08-21T00:36:35.599Z,86.84
2017-08-21T00:37:41.660Z,86.90
2017-08-21T00:38:47.696Z,86.58
2017-08-21T00:39:53.761Z,86.53
2017-08-21T00:40:59.806Z,86.74
2017-08-21T00:42:05.869Z,86.69
2017-08-21T00:43:11.930Z,86.70
2017-08-21T00:44:17.944Z,86.73
2017-08-21T00:45:23.971Z,86.99
2017-08-21T00:46:30.009Z,86.87
2017-08-21T00:47:36.111Z,87.16
2017-08-21T00:48:41.607Z,87.36
2017-08-21T00:49:46.954Z,87.96
2017-08-21T00:50:52.612Z,87.93
2017-08-21T00:51:58.691Z,87.42
2017-08-21T00:53:04.745Z,87.29
2017-08-21T00:54:10.833Z,87.74
2017-08-21T00:55:16.857Z,87.59
2017-08-21T00:56:22.738Z,87.98
2017-08-21T00:57:28.840Z,87.62
2017-08-21T00:58:34.890Z,87.79
2017-08-21T00:59:40.940Z,88.13
2017-08-21T01:00:47.016Z,87.98
2017-08-21T01:01:52.871Z,88.21
2017-08-21T01:02:58.933Z,88.14
2017-08-21T01:04:04.654Z,88.21
2017-08-21T01:05:10.418Z,88.01
2017-08-21T01:06:16.466Z,88.43
2017-08-21T01:07:22.484Z,88.75
2017-08-21T01:08:28.547Z,88.76
2017-08-21T01:09:34.611Z,88.97
2017-08-21T01:10:40.714Z,88.90
2017-08-21T01:11:46.769Z,88.55
2017-08-21T01:12:52.890Z,88.41
2017-08-21T01:13:58.943Z,88.55
2017-08-21T01:15:04.775Z,88.38
2017-08-21T01:16:10.866Z,88.73
2017-08-21T01:17:16.940Z,88.34
2017-08-21T01:18:23.053Z,88.34
2017-08-21T01:19:29.109Z,88.32
2017-08-21T01:20:34.787Z,88.85
2017-08-21T01:21:40.533Z,88.92
2017-08-21T01:22:46.556Z,88.62
2017-08-21T01:23:52.639Z,88.86
2017-08-21T01:24:58.674Z,89.38
2017-08-21T01:26:04.752Z,89.12
2017-08-21T01:27:10.844Z,89.12
2017-08-21T01:28:16.909Z,89.81
2017-08-21T01:29:22.977Z,89.61
2017-08-21T01:30:28.828Z,89.84
2017-08-21T01:31:35.706Z,89.78
2017-08-21T01:32:47.727Z,90.00
2017-08-21T01:33:53.778Z,89.51
2017-08-21T01:34:59.808Z,90.07
2017-08-21T01:36:05.824Z,89.62
2017-08-21T01:37:11.890Z,89.41
2017-08-21T01:38:17.946Z,90.10
2017-08-21T01:39:24.046Z,89.91
2017-08-21T01:40:30.085Z,90.42
2017-08-21T01:41:36.137Z,89.76
2017-08-21T01:42:42.261Z,89.89
2017-08-21T01:43:48.342Z,91.05
2017-08-21T01:44:54.388Z,91.37
2017-08-21T01:46:00.407Z,90.90
2017-08-21T01:47:06.454Z,90.84
2017-08-21T01:48:12.541Z,90.88
2017-08-21T01:49:18.593Z,91.60
2017-08-21T01:50:24.643Z,92.17
2017-08-21T01:51:30.665Z,92.48
2017-08-21T01:52:40.158Z,92.98
2017-08-21T01:53:46.225Z,93.32
2017-08-21T01:54:52.282Z,93.01
2017-08-21T01:55:58.350Z,92.64
2017-08-21T01:57:03.998Z,92.75
2017-08-21T01:58:10.037Z,92.45
2017-08-21T01:59:15.921Z,92.44
2017-08-21T02:00:21.991Z,92.72
2017-08-21T02:01:27.853Z,92.87
2017-08-21T02:02:33.704Z,92.59
2017-08-21T02:03:39.774Z,93.04
2017-08-21T02:04:45.637Z,92.56
2017-08-21T02:05:51.677Z,92.44
2017-08-21T02:06:57.810Z,92.45
2017-08-21T02:08:03.842Z,92.07
2017-08-21T02:09:09.931Z,92.50
2017-08-21T02:10:15.898Z,92.32
2017-08-21T02:11:21.931Z,92.50
2017-08-21T02:12:27.990Z,91.76
2017-08-21T02:13:35.031Z,91.93
2017-08-21T02:14:41.057Z,92.30
2017-08-21T02:15:47.146Z,92.40
2017-08-21T02:16:53.169Z,92.70
2017-08-21T02:17:59.186Z,92.60
2017-08-21T02:19:05.274Z,92.41
2017-08-21T02:20:11.303Z,92.44
2017-08-21T02:21:17.366Z,92.64
2017-08-21T02:22:23.392Z,92.29
2017-08-21T02:23:29.398Z,92.06
2017-08-21T02:24:35.425Z,92.53
2017-08-21T02:25:41.493Z,92.38
2017-08-21T02:26:47.566Z,92.12
2017-08-21T02:27:53.581Z,92.21
2017-08-21T02:28:59.632Z,92.43
2017-08-21T02:30:05.701Z,92.82
2017-08-21T02:31:11.710Z,92.61
2017-08-21T02:32:17.780Z,92.46
2017-08-21T02:33:23.833Z,91.86
2017-08-21T02:34:29.880Z,92.03
2017-08-21T02:35:35.907Z,92.42
2017-08-21T02:36:41.937Z,92.58
2017-08-21T02:37:48.046Z,93.06
2017-08-21T02:38:53.881Z,93.01
2017-08-21T02:39:59.919Z,93.01
2017-08-21T02:41:05.957Z,93.07
2017-08-21T02:42:11.992Z,92.82
2017-08-21T02:43:18.089Z,92.70
2017-08-21T02:44:24.132Z,92.92
2017-08-21T02:45:30.171Z,92.69
2017-08-21T02:46:36.205Z,92.46
2017-08-21T02:47:42.263Z,92.49
2017-08-21T02:48:48.354Z,92.30
2017-08-21T02:49:54.408Z,91.62
2017-08-21T02:51:00.427Z,91.74
2017-08-21T02:52:06.508Z,91.40
2017-08-21T02:53:12.526Z,91.28
2017-08-21T02:54:18.581Z,91.66
2017-08-21T02:55:25.506Z,91.80
2017-08-21T02:56:31.540Z,92.03
2017-08-21T02:57:37.551Z,91.93
2017-08-21T02:58:43.588Z,92.14
2017-08-21T02:59:49.668Z,91.72
2017-08-21T03:00:55.752Z,91.73
2017-08-21T03:02:01.585Z,91.81
2017-08-21T03:03:07.725Z,92.34
2017-08-21T03:04:13.773Z,92.35
2017-08-21T03:05:19.893Z,92.96
2017-08-21T03:06:27.248Z,93.01
2017-08-21T03:07:34.372Z,92.89
2017-08-21T03:08:40.922Z,93.43
2017-08-21T03:09:46.982Z,93.59
2017-08-21T03:10:53.085Z,93.60
2017-08-21T03:11:59.128Z,92.83
2017-08-21T03:13:04.995Z,92.89
2017-08-21T03:14:11.052Z,93.37
2017-08-21T03:15:17.093Z,92.68
2017-08-21T03:16:23.137Z,92.42
2017-08-21T03:17:29.162Z,93.00
2017-08-21T03:18:35.199Z,93.83
2017-08-21T03:19:41.385Z,93.98
2017-08-21T03:20:47.439Z,94.02
2017-08-21T03:21:53.481Z,94.12
2017-08-21T03:22:59.536Z,94.13
2017-08-21T03:24:05.622Z,93.63
2017-08-21T03:25:17.757Z,93.61
2017-08-21T03:26:27.902Z,93.88
2017-08-21T03:27:33.993Z,94.03
2017-08-21T03:28:40.050Z,93.73
2017-08-21T03:29:46.083Z,93.85
2017-08-21T03:30:52.109Z,93.63
2017-08-21T03:31:58.163Z,93.81
2017-08-21T03:33:04.240Z,94.51
2017-08-21T03:34:10.297Z,94.31
2017-08-21T03:35:16.002Z,94.58
2017-08-21T03:36:25.551Z,94.26
2017-08-21T03:37:31.549Z,94.59
2017-08-21T03:38:37.646Z,94.19
2017-08-21T03:39:43.709Z,94.28
2017-08-21T03:40:49.756Z,93.78
2017-08-21T03:41:55.767Z,93.42
2017-08-21T03:43:01.805Z,93.63
2017-08-21T03:44:07.917Z,93.58
2017-08-21T03:45:13.931Z,93.24
2017-08-21T03:46:19.963Z,93.42
2017-08-21T03:47:26.014Z,93.42
2017-08-21T03:48:32.077Z,94.20
2017-08-21T03:49:38.135Z,94.15
2017-08-21T03:50:44.174Z,93.93
2017-08-21T03:51:50.200Z,94.66
2017-08-21T03:52:56.227Z,94.91
2017-08-21T03:54:02.257Z,94.14
2017-08-21T03:55:08.411Z,94.10
2017-08-21T03:56:14.434Z,93.58
2017-08-21T03:57:20.477Z,93.55
2017-08-21T03:58:26.532Z,94.24
2017-08-21T03:59:32.567Z,94.58
2017-08-21T04:00:38.628Z,95.10
2017-08-21T04:01:44.702Z,94.91
2017-08-21T04:02:50.750Z,95.06
2017-08-21T04:03:56.813Z,95.01
2017-08-21T04:05:02.845Z,95.08
2017-08-21T04:06:08.756Z,94.61
2017-08-21T04:07:14.806Z,94.47
2017-08-21T04:08:20.835Z,94.59
2017-08-21T04:09:26.868Z,94.94
2017-08-21T04:10:32.885Z,94.78
2017-08-21T04:11:39.006Z,94.44
2017-08-21T04:12:45.023Z,94.19
2017-08-21T04:13:51.109Z,94.33
2017-08-21T04:14:57.167Z,94.19
2017-08-21T04:16:03.210Z,94.10
2017-08-21T04:17:09.467Z,93.85
2017-08-21T04:18:15.498Z,94.30
2017-08-21T04:19:21.182Z,94.01
2017-08-21T04:20:27.229Z,94.03
2017-08-21T04:21:33.392Z,93.63
2017-08-21T04:22:39.466Z,93.15
2017-08-21T04:23:45.506Z,92.79
2017-08-21T04:24:51.526Z,93.62
2017-08-21T04:25:57.593Z,94.06
2017-08-21T04:27:03.696Z,94.22
2017-08-21T04:28:09.799Z,94.04
2017-08-21T04:29:16.109Z,94.01
2017-08-21T04:30:22.356Z,94.25
2017-08-21T04:31:28.404Z,94.04
2017-08-21T04:32:34.316Z,94.11
2017-08-21T04:33:40.642Z,94.11
2017-08-21T04:34:46.751Z,93.54
2017-08-21T04:35:52.783Z,92.80
2017-08-21T04:36:58.837Z,92.74
2017-08-21T04:38:12.277Z,93.15
2017-08-21T04:39:18.362Z,93.22
2017-08-21T04:40:24.564Z,93.07
2017-08-21T04:41:30.616Z,92.87
2017-08-21T04:42:36.669Z,92.42
2017-08-21T04:43:42.690Z,92.13
2017-08-21T04:44:48.798Z,92.11
2017-08-21T04:45:54.871Z,92.12
2017-08-21T04:47:03.074Z,93.11
2017-08-21T04:48:09.775Z,93.24
2017-08-21T04:49:16.076Z,93.49
2017-08-21T04:50:22.231Z,93.18
2017-08-21T04:51:29.984Z,93.12
2017-08-21T04:52:37.818Z,92.84
2017-08-21T04:53:43.885Z,92.92
2017-08-21T04:54:51.766Z,93.31
2017-08-21T04:55:58.595Z,93.36
2017-08-21T04:57:04.772Z,92.86
2017-08-21T04:58:10.813Z,92.38
2017-08-21T04:59:16.850Z,92.17
2017-08-21T05:00:22.548Z,92.06
2017-08-21T05:01:28.465Z,92.45
2017-08-21T05:02:34.493Z,92.04
2017-08-21T05:03:40.541Z,91.76
2017-08-21T05:04:46.570Z,91.56
2017-08-21T05:05:52.654Z,91.67
2017-08-21T05:06:58.752Z,91.86
2017-08-21T05:08:04.768Z,91.56
2017-08-21T05:09:10.809Z,91.29
2017-08-21T05:10:16.861Z,90.77
2017-08-21T05:11:22.880Z,90.76
2017-08-21T05:12:29.067Z,90.35
2017-08-21T05:13:35.091Z,90.95
2017-08-21T05:14:41.116Z,90.49
2017-08-21T05:15:47.165Z,90.25
2017-08-21T05:16:53.177Z,90.05
2017-08-21T05:17:59.233Z,90.14
2017-08-21T05:19:05.450Z,90.18
2017-08-21T05:20:11.484Z,89.99
2017-08-21T05:21:17.498Z,89.16
2017-08-21T05:22:23.516Z,89.37
2017-08-21T05:23:29.630Z,89.63
2017-08-21T05:24:35.681Z,89.24
2017-08-21T05:25:41.762Z,88.35
2017-08-21T05:26:47.915Z,88.23
2017-08-21T05:27:54.117Z,88.28
2017-08-21T05:29:00.208Z,89.13
2017-08-21T05:30:06.236Z,88.71
2017-08-21T05:31:12.289Z,88.08
2017-08-21T05:32:18.323Z,88.16
2017-08-21T05:33:24.368Z,88.22
2017-08-21T05:34:30.449Z,88.21
2017-08-21T05:35:36.507Z,87.94
2017-08-21T05:36:42.540Z,87.73
2017-08-21T05:37:48.586Z,87.52
2017-08-21T05:38:54.446Z,87.48
2017-08-21T05:40:07.214Z,87.19
2017-08-21T05:41:18.838Z,88.17
2017-08-21T05:42:24.873Z,88.33
2017-08-21T05:43:30.881Z,87.86
2017-08-21T05:44:36.955Z,87.86
2017-08-21T05:45:43.216Z,87.43
2017-08-21T05:46:49.286Z,87.53
2017-08-21T05:47:55.330Z,87.88
2017-08-21T05:49:01.416Z,88.04
2017-08-21T05:50:07.563Z,87.70
2017-08-21T05:51:13.586Z,86.67
2017-08-21T05:52:19.689Z,86.66
2017-08-21T05:53:25.727Z,86.93
2017-08-21T05:54:31.744Z,86.58
2017-08-21T05:55:37.828Z,86.61
2017-08-21T05:56:43.860Z,86.68
2017-08-21T05:57:49.898Z,85.87
2017-08-21T05:58:56.028Z,85.67
2017-08-21T06:00:01.878Z,86.17
2017-08-21T06:01:08.046Z,85.95
2017-08-21T06:02:14.291Z,85.81
2017-08-21T06:03:20.317Z,86.05
2017-08-21T06:04:29.734Z,85.63
2017-08-21T06:05:37.010Z,85.58
2017-08-21T06:06:43.398Z,85.74
2017-08-21T06:07:49.929Z,85.04
2017-08-21T06:08:56.376Z,85.11
2017-08-21T06:10:02.560Z,84.73
2017-08-21T06:11:08.865Z,84.79
2017-08-21T06:12:15.470Z,84.09
2017-08-21T06:13:21.840Z,85.25
2017-08-21T06:14:28.030Z,84.51
2017-08-21T06:15:34.209Z,84.12
2017-08-21T06:16:40.591Z,84.37
2017-08-21T06:17:46.839Z,84.24
2017-08-21T06:18:52.934Z,83.98
2017-08-21T06:19:59.344Z,84.43
2017-08-21T06:21:05.872Z,83.81
2017-08-21T06:22:15.342Z,83.71
2017-08-21T06:23:25.625Z,83.46
2017-08-21T06:24:31.899Z,83.93
2017-08-21T06:25:38.586Z,83.92
2017-08-21T06:26:45.164Z,82.96
2017-08-21T06:27:55.724Z,82.99
2017-08-21T06:29:02.204Z,83.31
2017-08-21T06:30:08.599Z,83.51
2017-08-21T06:31:15.088Z,82.49
2017-08-21T06:32:22.121Z,83.05
2017-08-21T06:33:28.558Z,82.33
2017-08-21T06:34:34.847Z,81.61
2017-08-21T06:35:41.255Z,81.20
2017-08-21T06:36:47.422Z,81.62
2017-08-21T06:37:53.831Z,81.55
2017-08-21T06:39:00.263Z,81.35
2017-08-21T06:40:06.510Z,82.36
2017-08-21T06:41:12.746Z,81.44
2017-08-21T06:42:19.313Z,81.53
2017-08-21T06:43:25.732Z,82.00
2017-08-21T06:44:32.074Z,81.81
2017-08-21T06:45:38.324Z,81.27
2017-08-21T06:46:44.666Z,80.37
2017-08-21T06:47:51.104Z,80.41
2017-08-21T06:48:57.530Z,79.84
2017-08-21T06:50:03.881Z,80.13
2017-08-21T06:51:10.203Z,80.32
2017-08-21T06:52:16.612Z,80.69
2017-08-21T06:53:23.391Z,79.31
2017-08-21T06:54:29.661Z,79.68
2017-08-21T06:55:36.016Z,79.73
2017-08-21T06:56:42.415Z,79.38
2017-08-21T06:57:48.746Z,77.98
2017-08-21T06:58:54.963Z,77.77
2017-08-21T07:00:01.355Z,78.01
2017-08-21T07:01:08.589Z,77.83
2017-08-21T07:02:16.400Z,77.60
2017-08-21T07:03:24.072Z,77.54
2017-08-21T07:04:33.103Z,76.99
2017-08-21T07:05:39.623Z,77.07
2017-08-21T07:06:46.511Z,77.84
2017-08-21T07:07:54.002Z,76.73
2017-08-21T07:09:01.733Z,76.50
2017-08-21T07:10:08.958Z,76.52
2017-08-21T07:11:15.657Z,77.01
2017-08-21T07:12:22.328Z,76.74
2017-08-21T07:13:28.805Z,77.10
2017-08-21T07:14:35.062Z,75.65
2017-08-21T07:15:41.102Z,75.96
2017-08-21T07:16:47.138Z,76.05
2017-08-21T07:17:54.504Z,75.28
2017-08-21T07:19:01.530Z,75.85
2017-08-21T07:20:08.133Z,75.06
2017-08-21T07:21:14.696Z,74.33
2017-08-21T07:22:20.774Z,75.78
2017-08-21T07:23:26.868Z,76.59
2017-08-21T07:24:33.172Z,75.71
2017-08-21T07:25:41.289Z,75.30
2017-08-21T07:26:47.927Z,75.38
2017-08-21T07:27:55.534Z,75.08
2017-08-21T07:29:02.294Z,74.41
2017-08-21T07:30:10.774Z,74.18
2017-08-21T07:31:18.876Z,73.61
2017-08-21T07:32:25.029Z,75.00
2017-08-21T07:33:31.420Z,73.37
2017-08-21T07:34:37.542Z,72.43
2017-08-21T07:35:43.663Z,72.02
2017-08-21T07:36:49.735Z,73.22
2017-08-21T07:37:56.249Z,73.07
2017-08-21T07:39:02.480Z,72.00
2017-08-21T07:40:09.038Z,71.62
2017-08-21T07:41:15.178Z,71.35
2017-08-21T07:42:21.307Z,70.05
2017-08-21T07:43:27.823Z,70.64
2017-08-21T07:44:34.255Z,70.13
2017-08-21T07:45:41.037Z,71.96
2017-08-21T07:46:47.164Z,71.29
2017-08-21T07:47:53.499Z,70.91
2017-08-21T07:49:00.116Z,69.73
2017-08-21T07:50:06.270Z,70.61
2017-08-21T07:51:12.798Z,68.67
2017-08-21T07:52:18.939Z,68.55
2017-08-21T07:53:24.995Z,68.30
2017-08-21T07:54:31.005Z,68.11
2017-08-21T07:55:37.053Z,67.87
2017-08-21T07:56:44.130Z,66.87
2017-08-21T07:58:57.293Z,65.10
2017-08-21T08:00:06.606Z,66.63
2017-08-21T08:01:14.855Z,66.20
2017-08-21T08:02:21.791Z,66.44
2017-08-21T08:03:28.985Z,67.13
2017-08-21T08:04:35.845Z,67.82
2017-08-21T08:05:44.613Z,68.07
2017-08-21T08:06:51.816Z,69.10
2017-08-21T08:07:58.615Z,69.13
2017-08-21T08:09:05.565Z,70.60
2017-08-21T08:10:14.255Z,68.60
2017-08-21T08:11:22.596Z,68.49
2017-08-21T08:12:31.000Z,67.91
2017-08-21T08:14:44.013Z,66.82
2017-08-21T08:15:52.180Z,67.07
2017-08-21T08:16:59.474Z,64.26
2017-08-21T08:18:06.098Z,64.90
2017-08-21T08:19:13.683Z,65.74
2017-08-21T08:20:20.459Z,66.38
2017-08-21T08:21:26.896Z,67.72
2017-08-21T08:22:35.002Z,66.64
2017-08-21T08:23:43.521Z,67.68
2017-08-21T08:24:50.212Z,67.85
2017-08-21T08:25:58.435Z,67.55
2017-08-21T08:27:05.000Z,67.41
2017-08-21T08:28:12.900Z,68.82
2017-08-21T08:29:20.145Z,68.33
2017-08-21T08:30:27.412Z,68.06
2017-08-21T08:31:36.927Z,68.92
2017-08-21T08:32:43.529Z,68.00
2017-08-21T08:33:52.110Z,67.40
2017-08-21T08:34:59.882Z,67.42
2017-08-21T08:36:08.623Z,67.30
2017-08-21T08:37:15.472Z,66.82
2017-08-21T08:38:23.335Z,66.94
2017-08-21T08:39:30.154Z,66.22
2017-08-21T08:40:38.542Z,67.00
2017-08-21T08:41:46.328Z,65.62
2017-08-21T08:42:55.215Z,64.17
2017-08-21T08:44:02.334Z,65.18
2017-08-21T08:45:10.663Z,65.18
2017-08-21T08:46:18.769Z,64.58
2017-08-21T08:47:25.249Z,65.11
2017-08-21T08:48:32.098Z,63.74
2017-08-21T08:49:39.290Z,63.61
2017-08-21T08:50:49.918Z,63.55
2017-08-21T08:51:56.739Z,63.83
2017-08-21T08:53:03.475Z,63.89
2017-08-21T08:54:11.396Z,63.36
2017-08-21T08:55:18.189Z,63.19
2017-08-21T08:56:25.251Z,62.60
2017-08-21T08:57:32.169Z,62.27
2017-08-21T08:58:39.782Z,62.81
2017-08-21T08:59:48.187Z,63.57
2017-08-21T09:00:55.635Z,62.21
2017-08-21T09:02:03.583Z,62.28
2017-08-21T09:03:11.797Z,64.19
2017-08-21T09:04:19.298Z,64.69
2017-08-21T09:05:26.140Z,64.97
2017-08-21T09:06:34.194Z,64.40
2017-08-21T09:07:41.466Z,64.58
2017-08-21T09:08:49.321Z,62.68
2017-08-21T09:09:56.521Z,62.85
2017-08-21T09:11:03.294Z,63.34
2017-08-21T09:12:11.115Z,61.11
2017-08-21T09:13:18.885Z,61.49
2017-08-21T09:14:26.868Z,60.57
2017-08-21T09:15:33.605Z,59.46
2017-08-21T09:16:40.945Z,60.28
2017-08-21T09:17:49.482Z,60.95
2017-08-21T09:18:56.884Z,60.88
2017-08-21T09:20:05.330Z,62.14
2017-08-21T09:21:12.785Z,60.45
2017-08-21T09:22:20.048Z,60.73
2017-08-21T09:23:27.508Z,61.07
2017-08-21T09:24:36.126Z,61.40
2017-08-21T09:25:43.086Z,63.25
2017-08-21T09:26:50.528Z,61.59
2017-08-21T09:27:56.645Z,61.23
2017-08-21T09:29:02.682Z,61.04
2017-08-21T09:30:10.916Z,61.38
2017-08-21T09:31:19.659Z,60.15
2017-08-21T09:32:29.001Z,61.83
2017-08-21T09:33:37.512Z,61.76
2017-08-21T09:34:45.350Z,60.46
2017-08-21T09:35:54.513Z,61.40
2017-08-21T09:37:03.410Z,60.98
2017-08-21T09:38:12.566Z,60.56
2017-08-21T09:39:21.372Z,61.61
2017-08-21T09:40:30.283Z,61.92
2017-08-21T09:41:38.647Z,61.16
2017-08-21T09:42:48.402Z,62.82
2017-08-21T09:43:58.076Z,63.39
2017-08-21T09:45:05.927Z,61.59
2017-08-21T09:46:15.919Z,61.81
2017-08-21T09:47:24.159Z,62.63
2017-08-21T09:48:33.082Z,61.88
2017-08-21T09:49:41.566Z,61.04
2017-08-21T09:50:50.703Z,60.54
2017-08-21T09:51:58.353Z,62.79
2017-08-21T09:53:08.880Z,59.52
2017-08-21T09:54:17.602Z,61.26
2017-08-21T09:55:25.656Z,59.71
2017-08-21T09:56:32.295Z,60.22
2017-08-21T09:57:38.345Z,59.17
2017-08-21T09:58:44.423Z,60.76
2017-08-21T09:59:50.544Z,60.45
2017-08-21T10:00:56.578Z,60.43
2017-08-21T10:02:02.666Z,60.13
2017-08-21T10:03:08.754Z,59.88
2017-08-21T10:04:14.792Z,58.63
2017-08-21T10:05:20.858Z,58.14
2017-08-21T10:06:26.904Z,57.73
2017-08-21T10:07:32.935Z,57.58
2017-08-21T10:08:39.048Z,56.73
2017-08-21T10:09:44.893Z,57.01
2017-08-21T10:10:50.944Z,58.26
2017-08-21T10:11:57.793Z,56.44
2017-08-21T10:13:03.867Z,57.27
2017-08-21T10:14:09.912Z,57.75
2017-08-21T10:15:16.083Z,57.34
2017-08-21T10:16:22.162Z,57.48
2017-08-21T10:17:28.178Z,56.89
2017-08-21T10:18:34.226Z,58.68
2017-08-21T10:19:40.267Z,59.66
2017-08-21T10:20:46.370Z,59.26
2017-08-21T10:21:52.436Z,59.86
2017-08-21T10:22:58.503Z,60.43
2017-08-21T10:24:04.561Z,59.13
2017-08-21T10:25:10.614Z,61.72
2017-08-21T10:26:16.737Z,57.34
2017-08-21T10:27:22.796Z,56.42
2017-08-21T10:28:28.910Z,56.51
2017-08-21T10:29:34.969Z,56.90
2017-08-21T10:30:41.033Z,57.73
2017-08-21T10:31:47.192Z,58.28
2017-08-21T10:32:53.244Z,57.67
2017-08-21T10:33:59.272Z,57.62
2017-08-21T10:35:05.351Z,56.14
2017-08-21T10:36:11.366Z,57.00
2017-08-21T10:37:17.435Z,55.32
2017-08-21T10:38:23.481Z,55.90
2017-08-21T10:39:29.573Z,56.12
2017-08-21T10:40:35.661Z,53.02
2017-08-21T10:41:41.742Z,54.83
2017-08-21T10:42:47.831Z,53.59
2017-08-21T10:43:53.882Z,54.79
2017-08-21T10:44:59.941Z,54.70
2017-08-21T10:46:06.046Z,54.50
2017-08-21T10:47:12.118Z,53.96
2017-08-21T10:48:18.059Z,53.34
2017-08-21T10:49:24.133Z,53.79
2017-08-21T10:50:29.995Z,54.96
2017-08-21T10:51:35.816Z,55.14
2017-08-21T10:52:41.910Z,54.66
2017-08-21T10:53:48.006Z,54.25
2017-08-21T10:54:54.101Z,53.64
2017-08-21T10:56:00.195Z,53.97
2017-08-21T10:57:06.094Z,53.62
2017-08-21T10:58:13.468Z,53.99
2017-08-21T10:59:21.334Z,52.73
2017-08-21T11:00:28.457Z,52.38
2017-08-21T11:01:35.629Z,51.31
2017-08-21T11:02:42.884Z,52.81
2017-08-21T11:03:50.059Z,51.91
2017-08-21T11:04:57.261Z,54.14
2017-08-21T11:06:03.910Z,54.14
2017-08-21T11:07:10.948Z,52.71
2017-08-21T11:08:18.134Z,53.77
2017-08-21T11:09:24.696Z,53.37
2017-08-21T11:10:31.269Z,54.34
2017-08-21T11:11:38.199Z,54.53
2017-08-21T11:12:46.478Z,54.35
2017-08-21T11:13:52.904Z,55.05
2017-08-21T11:15:01.077Z,55.74
2017-08-21T11:16:10.469Z,57.07
2017-08-21T11:17:18.054Z,58.49
2017-08-21T11:18:24.783Z,59.69
2017-08-21T11:19:30.965Z,58.63
2017-08-21T11:20:37.535Z,58.89
2017-08-21T11:21:43.401Z,58.21
2017-08-21T11:22:49.441Z,57.87
2017-08-21T11:23:55.359Z,57.62
2017-08-21T11:25:01.422Z,58.74
2017-08-21T11:26:07.514Z,57.24
2017-08-21T11:27:13.637Z,56.48
2017-08-21T11:28:19.705Z,55.79
2017-08-21T11:29:25.775Z,56.57
2017-08-21T11:30:31.805Z,55.49
2017-08-21T11:31:37.837Z,55.58
2017-08-21T11:32:43.971Z,55.61
2017-08-21T11:33:52.418Z,55.03
2017-08-21T11:35:04.093Z,53.13
2017-08-21T11:36:12.780Z,52.54
2017-08-21T11:37:21.779Z,52.35
2017-08-21T11:38:30.775Z,51.76
2017-08-21T11:39:37.754Z,51.64
2017-08-21T11:40:45.412Z,50.34
2017-08-21T11:41:54.000Z,49.80
2017-08-21T11:43:02.993Z,51.41
2017-08-21T11:44:12.740Z,51.75
2017-08-21T11:45:22.102Z,53.53
2017-08-21T11:46:30.058Z,52.13
2017-08-21T11:47:38.141Z,53.71
2017-08-21T11:48:46.542Z,54.54
2017-08-21T11:49:53.437Z,54.22
2017-08-21T11:51:00.568Z,53.80
2017-08-21T11:52:09.313Z,54.71
2017-08-21T11:53:16.837Z,54.65
2017-08-21T11:54:23.682Z,57.66
2017-08-21T11:55:31.078Z,57.04
2017-08-21T11:56:38.980Z,56.54
2017-08-21T11:57:46.955Z,56.58
2017-08-21T11:58:55.588Z,56.92
2017-08-21T12:00:05.318Z,56.55
2017-08-21T12:01:14.126Z,57.47
2017-08-21T12:02:20.378Z,55.43
2017-08-21T12:03:29.201Z,55.23
2017-08-21T12:04:38.720Z,55.68
2017-08-21T12:05:46.199Z,55.75
2017-08-21T12:06:54.725Z,55.50
2017-08-21T12:08:02.905Z,55.11
2017-08-21T12:09:12.579Z,54.94
2017-08-21T12:10:19.799Z,54.33
2017-08-21T12:11:30.426Z,54.39
2017-08-21T12:12:38.145Z,53.29
2017-08-21T12:13:46.054Z,51.80
2017-08-21T12:14:54.405Z,52.38
2017-08-21T12:16:00.469Z,52.26
2017-08-21T12:17:09.559Z,52.06
2017-08-21T12:18:17.651Z,53.82
2017-08-21T12:19:25.159Z,53.17
2017-08-21T12:20:32.566Z,51.81
2017-08-21T12:21:38.621Z,52.44
2017-08-21T12:22:46.509Z,53.27
2017-08-21T12:23:52.817Z,51.16
2017-08-21T12:24:58.852Z,51.18
2017-08-21T12:26:05.027Z,51.89
2017-08-21T12:27:13.125Z,52.34
2017-08-21T12:28:20.015Z,51.01
2017-08-21T12:29:26.148Z,51.76
2017-08-21T12:30:33.393Z,51.10
2017-08-21T12:31:41.462Z,52.28
2017-08-21T12:32:47.878Z,51.29
2017-08-21T12:33:55.536Z,51.46
2017-08-21T12:35:02.471Z,51.80
2017-08-21T12:36:08.613Z,51.74
2017-08-21T12:37:16.302Z,53.02
2017-08-21T12:38:26.102Z,51.98
2017-08-21T12:39:35.171Z,52.36
2017-08-21T12:40:42.222Z,52.68
2017-08-21T12:41:50.047Z,53.36
2017-08-21T12:42:58.746Z,52.81
2017-08-21T12:44:04.798Z,53.17
2017-08-21T12:45:13.446Z,52.03
2017-08-21T12:46:20.821Z,52.14
2017-08-21T12:47:28.812Z,52.01
2017-08-21T12:48:37.030Z,52.57
2017-08-21T12:49:44.977Z,53.75
2017-08-21T12:50:53.157Z,52.94
2017-08-21T12:52:05.215Z,54.71
2017-08-21T12:53:14.626Z,53.51
2017-08-21T12:54:23.447Z,52.69
2017-08-21T12:55:33.099Z,51.78
2017-08-21T12:56:41.762Z,53.16
2017-08-21T12:57:49.857Z,52.89
2017-08-21T12:58:59.317Z,53.17
2017-08-21T13:00:07.564Z,52.59
2017-08-21T13:01:17.235Z,52.23
2017-08-21T13:02:27.443Z,50.82
2017-08-21T13:03:37.154Z,51.47
2017-08-21T13:04:45.469Z,53.01
2017-08-21T13:05:54.293Z,52.40
2017-08-21T13:07:02.722Z,50.44
2017-08-21T13:08:11.486Z,48.90
2017-08-21T13:09:20.178Z,53.21
2017-08-21T13:10:28.680Z,50.96
2017-08-21T13:11:35.433Z,48.37
2017-08-21T13:12:41.509Z,47.96
2017-08-21T13:13:47.553Z,48.53
2017-08-21T13:14:54.108Z,49.04
2017-08-21T13:16:03.374Z,46.71
2017-08-21T13:17:11.661Z,47.30
2017-08-21T13:18:19.598Z,48.51
2017-08-21T13:19:26.756Z,46.63
2017-08-21T13:20:35.270Z,47.53
2017-08-21T13:21:42.668Z,47.00
2017-08-21T13:22:50.805Z,47.60
2017-08-21T13:23:58.452Z,48.98
2017-08-21T13:25:07.081Z,47.24
2017-08-21T13:26:13.801Z,47.75
2017-08-21T13:27:21.579Z,47.83
2017-08-21T13:28:28.404Z,49.04
2017-08-21T13:29:37.692Z,48.85
2017-08-21T13:30:45.547Z,49.50
2017-08-21T13:31:54.926Z,49.33
2017-08-21T13:33:01.812Z,49.98
2017-08-21T13:34:10.665Z,48.61
2017-08-21T13:35:19.840Z,48.62
2017-08-21T13:36:26.582Z,49.60
2017-08-21T13:37:32.742Z,50.26
2017-08-21T13:38:41.010Z,51.21
2017-08-21T13:39:49.448Z,50.70
2017-08-21T13:40:57.066Z,51.96
2017-08-21T13:42:03.110Z,51.96
2017-08-21T13:43:09.301Z,52.06
2017-08-21T13:44:15.340Z,52.21
2017-08-21T13:45:21.427Z,51.42
2017-08-21T13:46:27.488Z,52.72
2017-08-21T13:47:33.585Z,52.72
2017-08-21T13:48:39.682Z,51.87
2017-08-21T13:49:45.342Z,51.27
2017-08-21T13:50:51.060Z,51.43
2017-08-21T13:51:56.901Z,49.53
2017-08-21T13:53:02.737Z,50.41
2017-08-21T13:54:08.907Z,49.49
2017-08-21T13:55:14.928Z,49.91
2017-08-21T13:56:20.951Z,49.34
2017-08-21T13:57:26.991Z,47.94
2017-08-21T13:58:33.030Z,47.24
2017-08-21T13:59:39.122Z,48.67
2017-08-21T14:00:45.151Z,50.44
2017-08-21T14:01:51.185Z,49.94
2017-08-21T14:02:57.010Z,49.68
2017-08-21T14:04:03.078Z,49.37
2017-08-21T14:05:09.247Z,49.19
2017-08-21T14:06:15.273Z,49.36
2017-08-21T14:07:21.313Z,50.07
2017-08-21T14:08:27.384Z,50.47
2017-08-21T14:09:33.409Z,48.34
2017-08-21T14:10:39.490Z,49.13
2017-08-21T14:11:45.540Z,48.26
2017-08-21T14:12:51.589Z,47.62
2017-08-21T14:13:57.675Z,47.29
2017-08-21T14:15:04.132Z,46.80
2017-08-21T14:16:10.244Z,47.13
2017-08-21T14:17:16.552Z,46.93
2017-08-21T14:18:22.598Z,47.40
2017-08-21T14:19:29.520Z,47.35
2017-08-21T14:20:35.643Z,47.45
2017-08-21T14:21:41.834Z,46.35